createdAt,value
2023-02-06T00:01:49.162Z,20.83
2023-02-06T00:04:16.599Z,17.67
2023-02-06T00:06:44.017Z,15.53
2023-02-06T00:09:11.746Z,20.20
2023-02-06T00:11:38.801Z,15.73
2023-02-06T00:14:07.271Z,18.50
2023-02-06T00:16:36.785Z,15.13
2023-02-06T00:19:04.339Z,13.70
2023-02-06T00:21:31.955Z,13.77
2023-02-06T00:24:00.867Z,18.20
2023-02-06T00:26:28.401Z,14.20
2023-02-06T00:28:55.447Z,16.60
2023-02-06T00:31:22.456Z,19.27
2023-02-06T00:33:52.762Z,18.33
2023-02-06T00:36:19.723Z,17.07
2023-02-06T00:38:51.023Z,12.83
2023-02-06T00:41:17.985Z,13.10
2023-02-06T00:43:44.921Z,14.43
2023-02-06T00:46:12.374Z,15.20
2023-02-06T00:48:39.497Z,14.77
2023-02-06T00:51:06.904Z,11.90
2023-02-06T00:53:34.039Z,11.20
2023-02-06T00:56:00.943Z,15.27
2023-02-06T00:58:27.886Z,12.00
2023-02-06T01:00:55.074Z,13.10
2023-02-06T01:03:22.403Z,12.37
2023-02-06T01:05:49.580Z,18.30
2023-02-06T01:08:16.508Z,12.17
2023-02-06T01:10:44.956Z,19.97
2023-02-06T01:13:12.537Z,16.13
2023-02-06T01:15:39.630Z,17.60
2023-02-06T01:18:06.567Z,13.37
2023-02-06T01:20:33.640Z,10.07
2023-02-06T01:23:00.655Z,12.73
2023-02-06T01:25:27.908Z,12.87
2023-02-06T01:27:54.760Z,16.67
2023-02-06T01:30:21.681Z,14.67
2023-02-06T01:32:48.487Z,13.23
2023-02-06T01:35:15.358Z,16.03
2023-02-06T01:37:42.587Z,12.63
2023-02-06T01:40:14.123Z,18.87
2023-02-06T01:42:41.250Z,16.50
2023-02-06T01:45:37.563Z,16.03
2023-02-06T01:48:10.420Z,10.97
2023-02-06T01:50:40.154Z,17.27
2023-02-06T01:53:07.969Z,9.53
2023-02-06T01:55:41.763Z,10.07
2023-02-06T01:58:11.469Z,14.80
2023-02-06T02:00:38.783Z,13.13
2023-02-06T02:03:05.909Z,13.00
2023-02-06T02:05:34.296Z,12.00
2023-02-06T02:08:08.621Z,12.33
2023-02-06T02:10:35.593Z,11.13
2023-02-06T02:13:02.521Z,11.40
2023-02-06T02:15:43.087Z,8.93
2023-02-06T02:18:45.011Z,15.50
2023-02-06T02:21:14.765Z,13.63
2023-02-06T02:24:10.628Z,9.17
2023-02-06T02:26:51.313Z,13.80
2023-02-06T02:29:54.969Z,14.60
2023-02-06T02:32:36.656Z,9.27
2023-02-06T02:35:06.448Z,12.70
2023-02-06T02:37:36.010Z,19.47
2023-02-06T02:40:27.542Z,8.60
2023-02-06T02:43:13.560Z,10.43
2023-02-06T02:45:54.995Z,14.53
2023-02-06T02:48:32.820Z,10.73
2023-02-06T02:51:01.173Z,12.17
2023-02-06T02:53:28.252Z,14.33
2023-02-06T02:55:55.817Z,9.00
2023-02-06T02:58:28.845Z,11.73
2023-02-06T03:01:02.352Z,11.30
2023-02-06T03:03:32.839Z,13.57
2023-02-06T03:06:27.202Z,10.03
2023-02-06T03:09:06.332Z,11.10
2023-02-06T03:11:34.206Z,9.90
2023-02-06T03:14:20.955Z,11.13
2023-02-06T03:16:52.655Z,13.13
2023-02-06T03:19:25.264Z,13.53
2023-02-06T03:21:52.152Z,8.93
2023-02-06T03:24:26.640Z,12.13
2023-02-06T03:26:59.362Z,12.60
2023-02-06T03:29:28.608Z,9.17
2023-02-06T03:32:06.121Z,10.87
2023-02-06T03:34:44.787Z,9.87
2023-02-06T03:37:12.764Z,14.03
2023-02-06T03:39:40.858Z,10.83
2023-02-06T03:42:11.558Z,11.47
2023-02-06T03:44:43.377Z,12.83
2023-02-06T03:47:12.223Z,12.10
2023-02-06T03:49:41.778Z,14.90
2023-02-06T03:52:12.973Z,12.77
2023-02-06T03:54:45.570Z,13.40
2023-02-06T03:57:19.551Z,16.30
2023-02-06T03:59:47.565Z,15.90
2023-02-06T04:02:17.107Z,17.87
2023-02-06T04:04:45.399Z,14.60
2023-02-06T04:07:23.040Z,14.37
2023-02-06T04:09:50.309Z,17.20
2023-02-06T04:12:17.454Z,15.13
2023-02-06T04:14:44.472Z,15.03
2023-02-06T04:17:12.074Z,14.87
2023-02-06T04:19:39.561Z,16.80
2023-02-06T04:22:07.352Z,19.50
2023-02-06T04:24:34.545Z,18.37
2023-02-06T04:27:01.551Z,13.03
2023-02-06T04:29:28.540Z,15.73
2023-02-06T04:32:02.112Z,14.47
2023-02-06T04:34:30.339Z,21.17
2023-02-06T04:36:57.740Z,16.93
2023-02-06T04:39:25.421Z,14.10
2023-02-06T04:41:52.390Z,16.40
2023-02-06T04:44:19.270Z,15.43
2023-02-06T04:46:46.346Z,18.80
2023-02-06T04:49:14.371Z,14.47
2023-02-06T04:51:42.088Z,18.27
2023-02-06T04:54:13.096Z,14.50
2023-02-06T04:56:40.062Z,15.37
2023-02-06T04:59:07.095Z,22.40
2023-02-06T05:01:34.092Z,13.90
2023-02-06T05:04:01.136Z,15.27
2023-02-06T05:06:30.031Z,11.53
2023-02-06T05:08:59.504Z,14.17
2023-02-06T05:11:27.085Z,20.03
2023-02-06T05:13:53.940Z,23.10
2023-02-06T05:16:20.603Z,12.27
2023-02-06T05:18:47.650Z,14.57
2023-02-06T05:21:15.500Z,17.90
2023-02-06T05:23:42.417Z,18.73
2023-02-06T05:26:09.249Z,16.57
2023-02-06T05:28:36.119Z,17.10
2023-02-06T05:31:03.824Z,14.73
2023-02-06T05:33:31.276Z,15.20
2023-02-06T05:36:07.925Z,18.03
2023-02-06T05:38:35.092Z,14.93
2023-02-06T05:41:02.315Z,17.07
2023-02-06T05:43:31.311Z,18.70
2023-02-06T05:45:58.263Z,20.30
2023-02-06T05:48:25.280Z,24.03
2023-02-06T05:50:52.240Z,22.07
2023-02-06T05:53:23.303Z,25.83
2023-02-06T05:55:50.912Z,15.27
2023-02-06T05:58:18.003Z,21.30
2023-02-06T06:00:45.260Z,24.43
2023-02-06T06:03:12.279Z,17.23
2023-02-06T06:05:39.437Z,19.57
2023-02-06T06:08:06.423Z,20.50
2023-02-06T06:10:33.375Z,18.80
2023-02-06T06:13:00.535Z,15.67
2023-02-06T06:15:27.486Z,15.93
2023-02-06T06:17:54.485Z,17.80
2023-02-06T06:20:21.475Z,19.33
2023-02-06T06:22:48.317Z,21.10
2023-02-06T06:25:15.362Z,20.23
2023-02-06T06:27:42.320Z,19.57
2023-02-06T06:30:10.290Z,18.63
2023-02-06T06:32:37.215Z,21.67
2023-02-06T06:35:04.466Z,25.43
2023-02-06T06:37:31.526Z,20.00
2023-02-06T06:39:59.665Z,20.17
2023-02-06T06:42:26.666Z,20.13
2023-02-06T06:44:53.668Z,19.33
2023-02-06T06:47:20.653Z,11.40
2023-02-06T06:49:47.695Z,16.77
2023-02-06T06:52:25.040Z,16.70
2023-02-06T06:54:55.803Z,13.80
2023-02-06T06:57:22.976Z,22.63
2023-02-06T06:59:50.146Z,21.70
2023-02-06T07:02:17.218Z,19.73
2023-02-06T07:04:44.264Z,20.83
2023-02-06T07:07:11.508Z,29.37
2023-02-06T07:09:38.407Z,20.00
2023-02-06T07:12:05.757Z,21.17
2023-02-06T07:14:32.612Z,25.07
2023-02-06T07:17:01.888Z,24.47
2023-02-06T07:19:28.790Z,21.67
2023-02-06T07:21:55.626Z,17.67
2023-02-06T07:24:27.784Z,24.27
2023-02-06T07:26:57.962Z,38.33
2023-02-06T07:29:26.494Z,32.83
2023-02-06T07:31:53.566Z,25.00
2023-02-06T07:34:20.420Z,19.70
2023-02-06T07:36:47.798Z,23.23
2023-02-06T07:39:14.694Z,24.70
2023-02-06T07:41:41.920Z,22.90
2023-02-06T07:44:11.284Z,25.97
2023-02-06T07:46:38.366Z,23.53
2023-02-06T07:49:06.510Z,27.30
2023-02-06T07:51:33.583Z,29.37
2023-02-06T07:54:02.333Z,25.20
2023-02-06T07:56:29.157Z,29.80
2023-02-06T07:58:56.139Z,23.77
2023-02-06T08:01:23.899Z,23.50
2023-02-06T08:03:52.263Z,27.83
2023-02-06T08:06:21.486Z,32.73
2023-02-06T08:08:50.267Z,25.63
2023-02-06T08:11:19.662Z,36.77
2023-02-06T08:13:48.312Z,30.70
2023-02-06T08:16:21.941Z,28.83
2023-02-06T08:18:49.233Z,27.17
2023-02-06T08:21:24.132Z,29.27
2023-02-06T08:23:59.135Z,34.33
2023-02-06T08:26:28.516Z,29.23
2023-02-06T08:28:57.235Z,24.60
2023-02-06T08:31:26.137Z,33.93
2023-02-06T08:33:53.431Z,28.83
2023-02-06T08:36:21.311Z,22.97
2023-02-06T08:38:48.964Z,36.57
2023-02-06T08:41:30.864Z,29.70
2023-02-06T08:44:02.420Z,28.30
2023-02-06T08:46:30.984Z,31.70
2023-02-06T08:49:18.021Z,30.40
2023-02-06T08:51:45.856Z,28.50
2023-02-06T08:54:16.172Z,37.90
2023-02-06T08:56:43.590Z,39.07
2023-02-06T08:59:13.342Z,41.80
2023-02-06T09:01:41.052Z,46.17
2023-02-06T09:04:14.149Z,37.13
2023-02-06T09:06:44.263Z,40.33
2023-02-06T09:09:12.740Z,36.83
2023-02-06T09:11:40.259Z,37.30
2023-02-06T09:14:08.820Z,46.10
2023-02-06T09:16:37.849Z,41.57
2023-02-06T09:19:05.259Z,35.00
2023-02-06T09:21:34.814Z,53.40
2023-02-06T09:24:05.315Z,44.77
2023-02-06T09:26:44.789Z,43.37
2023-02-06T09:29:17.140Z,36.20
2023-02-06T09:31:44.258Z,41.30
2023-02-06T09:34:12.834Z,49.70
2023-02-06T09:36:40.160Z,45.53
2023-02-06T09:39:09.065Z,38.73
2023-02-06T09:41:42.508Z,26.07
2023-02-06T09:44:24.291Z,46.87
2023-02-06T09:46:58.307Z,36.20
2023-02-06T09:49:43.548Z,32.13
2023-02-06T09:52:23.437Z,31.23
2023-02-06T09:55:18.621Z,33.87
2023-02-06T09:57:57.282Z,32.97
2023-02-06T10:00:33.202Z,31.50
2023-02-06T10:03:12.846Z,27.77
2023-02-06T10:06:23.280Z,29.33
2023-02-06T10:09:05.079Z,25.40
2023-02-06T10:12:01.228Z,26.30
2023-02-06T10:14:45.498Z,32.80
2023-02-06T10:17:21.851Z,35.17
2023-02-06T10:19:51.527Z,48.73
2023-02-06T10:22:28.300Z,43.57
2023-02-06T10:25:30.369Z,37.27
2023-02-06T10:28:01.448Z,35.40
2023-02-06T10:31:09.958Z,43.33
2023-02-06T10:33:50.997Z,42.50
2023-02-06T10:36:32.354Z,33.67
2023-02-06T10:39:36.178Z,32.53
2023-02-06T10:42:38.460Z,33.20
2023-02-06T10:45:26.929Z,29.37
2023-02-06T10:48:39.307Z,36.43
2023-02-06T10:51:27.559Z,33.00
2023-02-06T10:53:59.905Z,33.53
2023-02-06T10:56:30.684Z,33.80
2023-02-06T10:59:17.396Z,27.43
2023-02-06T11:01:47.550Z,23.20
2023-02-06T11:04:33.989Z,24.73
2023-02-06T11:07:04.545Z,27.00
2023-02-06T11:09:32.355Z,22.33
2023-02-06T11:12:01.068Z,18.27
2023-02-06T11:14:33.287Z,21.23
2023-02-06T11:17:00.805Z,15.80
2023-02-06T11:19:31.156Z,19.27
2023-02-06T11:22:15.476Z,16.90
2023-02-06T11:25:32.127Z,14.27
2023-02-06T11:28:00.903Z,13.53
2023-02-06T11:30:36.863Z,14.80
2023-02-06T11:33:20.277Z,14.73
2023-02-06T11:36:04.493Z,16.43
2023-02-06T11:38:32.617Z,14.80
2023-02-06T11:41:02.410Z,15.93
2023-02-06T11:43:48.967Z,16.93
2023-02-06T11:46:19.771Z,12.13
2023-02-06T11:49:20.871Z,10.53
2023-02-06T11:51:53.004Z,10.50
2023-02-06T11:54:28.448Z,13.70
2023-02-06T11:57:20.269Z,12.27
2023-02-06T11:59:59.587Z,12.63
2023-02-06T12:02:33.360Z,11.30
2023-02-06T12:05:21.948Z,11.27
2023-02-06T12:08:03.883Z,12.33
2023-02-06T12:10:36.171Z,12.70
2023-02-06T12:13:10.758Z,15.13
2023-02-06T12:15:48.574Z,11.03
2023-02-06T12:18:21.795Z,14.43
2023-02-06T12:20:53.398Z,12.70
2023-02-06T12:23:47.702Z,13.13
2023-02-06T12:26:18.211Z,16.63
2023-02-06T12:28:51.920Z,11.30
2023-02-06T12:31:44.210Z,13.27
2023-02-06T12:34:19.459Z,16.83
2023-02-06T12:36:59.238Z,15.53
2023-02-06T12:39:32.129Z,15.47
2023-02-06T12:42:21.091Z,16.17
2023-02-06T12:44:59.470Z,19.07
2023-02-06T12:47:40.747Z,19.63
2023-02-06T12:50:23.514Z,17.47
2023-02-06T12:53:05.107Z,17.63
2023-02-06T12:55:37.180Z,17.40
2023-02-06T12:58:05.357Z,18.17
2023-02-06T13:01:01.204Z,20.03
2023-02-06T13:03:31.548Z,15.67
2023-02-06T13:06:22.066Z,16.97
2023-02-06T13:09:07.931Z,22.60
2023-02-06T13:11:39.374Z,22.87
2023-02-06T13:14:28.040Z,14.67
2023-02-06T13:17:04.979Z,17.03
2023-02-06T13:19:53.187Z,17.07
2023-02-06T13:22:20.355Z,16.50
2023-02-06T13:24:49.715Z,19.17
2023-02-06T13:27:25.186Z,21.17
2023-02-06T13:29:54.273Z,19.57
2023-02-06T13:32:24.628Z,26.23
2023-02-06T13:34:54.291Z,16.30
2023-02-06T13:37:37.938Z,19.73
2023-02-06T13:40:23.350Z,20.53
2023-02-06T13:42:57.299Z,19.70
2023-02-06T13:45:45.119Z,16.93
2023-02-06T13:48:47.358Z,19.87
2023-02-06T13:51:53.118Z,23.10
2023-02-06T13:54:28.831Z,13.93
2023-02-06T13:57:20.723Z,19.43
2023-02-06T14:00:11.080Z,19.60
2023-02-06T14:02:41.313Z,16.43
2023-02-06T14:05:17.185Z,20.83
2023-02-06T14:08:11.058Z,18.83
2023-02-06T14:10:47.593Z,17.00
2023-02-06T14:13:36.201Z,21.80
2023-02-06T14:16:28.539Z,20.63
2023-02-06T14:19:23.032Z,17.93
2023-02-06T14:22:09.728Z,19.43
2023-02-06T14:25:11.929Z,19.93
2023-02-06T14:28:01.522Z,22.60
2023-02-06T14:30:46.697Z,16.63
2023-02-06T14:33:51.738Z,22.73
2023-02-06T14:37:06.827Z,20.40
2023-02-06T14:39:54.944Z,21.83
2023-02-06T14:42:44.250Z,24.77
2023-02-06T14:45:38.603Z,22.53
2023-02-06T14:48:31.281Z,22.27
2023-02-06T14:50:59.688Z,21.63
2023-02-06T14:53:31.501Z,20.80
2023-02-06T14:56:12.663Z,19.10
2023-02-06T14:58:39.784Z,25.23
2023-02-06T15:01:18.631Z,24.83
2023-02-06T15:03:47.443Z,24.60
2023-02-06T15:06:35.310Z,22.77
2023-02-06T15:09:02.598Z,23.57
2023-02-06T15:11:32.985Z,21.17
2023-02-06T15:14:04.413Z,20.63
2023-02-06T15:16:34.233Z,17.67
2023-02-06T15:19:24.793Z,16.87
2023-02-06T15:21:59.578Z,19.40
2023-02-06T15:24:49.153Z,22.73
2023-02-06T15:27:36.956Z,16.07
2023-02-06T15:30:26.902Z,19.30
2023-02-06T15:32:56.653Z,17.57
2023-02-06T15:35:31.750Z,15.07
2023-02-06T15:38:04.583Z,14.87
2023-02-06T15:40:34.559Z,14.43
2023-02-06T15:43:03.227Z,16.27
2023-02-06T15:45:36.932Z,12.27
2023-02-06T15:48:35.122Z,12.20
2023-02-06T15:51:09.030Z,11.67
2023-02-06T15:53:39.388Z,16.70
2023-02-06T15:56:21.311Z,18.73
2023-02-06T15:58:54.226Z,16.37
2023-02-06T16:01:21.608Z,17.97
2023-02-06T16:03:56.571Z,18.17
2023-02-06T16:06:23.464Z,19.50
2023-02-06T16:08:55.380Z,24.10
2023-02-06T16:11:50.838Z,18.53
2023-02-06T16:14:41.715Z,18.53
2023-02-06T16:17:08.767Z,20.17
2023-02-06T16:20:06.965Z,20.17
2023-02-06T16:22:40.329Z,22.60
2023-02-06T16:25:22.678Z,25.83
2023-02-06T16:27:51.450Z,25.23
2023-02-06T16:30:33.920Z,25.30
2023-02-06T16:33:31.292Z,18.37
2023-02-06T16:35:58.197Z,27.97
2023-02-06T16:38:25.183Z,26.27
2023-02-06T16:40:52.662Z,35.60
2023-02-06T16:43:20.326Z,31.53
2023-02-06T16:45:48.156Z,36.50
2023-02-06T16:48:20.220Z,32.30
2023-02-06T16:50:48.764Z,34.70
2023-02-06T16:53:34.153Z,32.37
2023-02-06T16:56:02.336Z,35.57
2023-02-06T16:58:32.025Z,31.67
2023-02-06T17:00:59.347Z,28.97
2023-02-06T17:03:32.802Z,22.80
2023-02-06T17:06:01.246Z,23.23
2023-02-06T17:08:28.184Z,21.37
2023-02-06T17:10:55.007Z,25.87
2023-02-06T17:13:24.463Z,24.83
2023-02-06T17:15:56.326Z,20.13
2023-02-06T17:18:23.772Z,22.93
2023-02-06T17:20:53.193Z,23.17
2023-02-06T17:23:20.473Z,21.17
2023-02-06T17:25:47.508Z,28.10
2023-02-06T17:28:18.698Z,24.27
2023-02-06T17:30:46.480Z,26.63
2023-02-06T17:33:13.445Z,18.43
2023-02-06T17:35:40.225Z,19.77
2023-02-06T17:38:09.197Z,22.33
2023-02-06T17:40:37.844Z,24.13
2023-02-06T17:43:06.010Z,22.97
2023-02-06T17:45:35.437Z,26.13
2023-02-06T17:48:02.603Z,29.67
2023-02-06T17:50:33.261Z,26.30
2023-02-06T17:53:00.527Z,28.00
2023-02-06T17:55:28.858Z,22.90
2023-02-06T17:58:02.252Z,24.47
2023-02-06T18:00:29.406Z,23.07
2023-02-06T18:02:58.614Z,21.70
2023-02-06T18:05:26.457Z,24.27
2023-02-06T18:07:53.511Z,24.23
2023-02-06T18:10:22.763Z,21.50
2023-02-06T18:12:49.674Z,21.53
2023-02-06T18:15:17.355Z,23.33
2023-02-06T18:17:44.590Z,26.43
2023-02-06T18:20:12.662Z,31.40
2023-02-06T18:22:42.436Z,23.53
2023-02-06T18:25:13.242Z,26.13
2023-02-06T18:27:41.821Z,24.53
2023-02-06T18:30:11.085Z,22.70
2023-02-06T18:32:39.130Z,30.40
2023-02-06T18:35:07.668Z,28.20
2023-02-06T18:37:35.437Z,23.30
2023-02-06T18:40:02.862Z,26.00
2023-02-06T18:42:48.496Z,21.90
2023-02-06T18:45:15.471Z,27.57
2023-02-06T18:47:42.624Z,23.97
2023-02-06T18:50:11.590Z,20.57
2023-02-06T18:52:42.351Z,30.67
2023-02-06T18:55:09.769Z,24.20
2023-02-06T18:57:37.085Z,22.00
2023-02-06T19:00:12.226Z,18.73
2023-02-06T19:02:39.112Z,20.00
2023-02-06T19:05:06.475Z,21.63
2023-02-06T19:07:33.698Z,20.63
2023-02-06T19:10:04.394Z,24.80
2023-02-06T19:12:32.361Z,23.50
2023-02-06T19:15:00.203Z,22.87
2023-02-06T19:17:28.243Z,23.20
2023-02-06T19:19:55.146Z,20.50
2023-02-06T19:22:24.065Z,23.63
2023-02-06T19:24:54.124Z,20.20
2023-02-06T19:27:22.008Z,23.27
2023-02-06T19:29:49.279Z,25.30
2023-02-06T19:32:16.275Z,21.77
2023-02-06T19:34:45.533Z,25.07
2023-02-06T19:37:13.626Z,23.47
2023-02-06T19:39:41.470Z,23.07
2023-02-06T19:42:10.223Z,24.27
2023-02-06T19:44:37.528Z,27.50
2023-02-06T19:47:07.782Z,26.67
2023-02-06T19:49:34.842Z,24.73
2023-02-06T19:52:02.012Z,23.03
2023-02-06T19:54:28.959Z,23.50
2023-02-06T19:56:56.000Z,23.57
2023-02-06T19:59:28.613Z,26.90
2023-02-06T20:01:58.605Z,22.37
2023-02-06T20:04:29.262Z,25.37
2023-02-06T20:06:56.451Z,25.17
2023-02-06T20:09:24.468Z,25.77
2023-02-06T20:11:53.137Z,29.93
2023-02-06T20:14:20.999Z,29.03
2023-02-06T20:16:49.482Z,29.47
2023-02-06T20:19:25.000Z,27.73
2023-02-06T20:21:57.219Z,25.90
2023-02-06T20:24:27.688Z,30.57
2023-02-06T20:26:57.955Z,27.17
2023-02-06T20:29:31.341Z,33.03
2023-02-06T20:32:00.564Z,28.43
2023-02-06T20:34:41.331Z,29.23
2023-02-06T20:37:08.371Z,28.50
2023-02-06T20:39:35.377Z,32.13
2023-02-06T20:42:04.599Z,31.83
2023-02-06T20:44:31.639Z,29.27
2023-02-06T20:46:58.437Z,30.67
2023-02-06T20:49:28.632Z,34.13
2023-02-06T20:51:58.697Z,32.73
2023-02-06T20:54:25.987Z,31.13
2023-02-06T20:56:53.101Z,33.70
2023-02-06T20:59:20.500Z,26.90
2023-02-06T21:01:48.065Z,28.87
2023-02-06T21:04:16.589Z,30.87
2023-02-06T21:06:44.381Z,26.17
2023-02-06T21:09:14.884Z,30.33
2023-02-06T21:11:45.251Z,31.67
2023-02-06T21:14:13.176Z,24.30
2023-02-06T21:16:40.661Z,29.93
2023-02-06T21:19:09.677Z,30.33
2023-02-06T21:21:37.511Z,29.90
2023-02-06T21:24:04.902Z,28.33
2023-02-06T21:26:32.890Z,29.53
2023-02-06T21:29:00.720Z,34.57
2023-02-06T21:31:36.815Z,29.73
2023-02-06T21:34:20.249Z,34.77
2023-02-06T21:36:50.627Z,30.27
2023-02-06T21:39:23.245Z,30.27
2023-02-06T21:41:53.992Z,31.60
2023-02-06T21:44:23.815Z,29.13
2023-02-06T21:46:51.570Z,28.00
2023-02-06T21:49:19.542Z,26.40
2023-02-06T21:51:46.767Z,27.20
2023-02-06T21:54:13.602Z,28.90
2023-02-06T21:56:40.696Z,26.37
2023-02-06T21:59:08.480Z,32.20
2023-02-06T22:01:35.905Z,31.10
2023-02-06T22:04:04.219Z,29.13
2023-02-06T22:06:32.572Z,24.30
2023-02-06T22:09:07.746Z,23.47
2023-02-06T22:11:39.528Z,21.40
2023-02-06T22:14:10.506Z,26.77
2023-02-06T22:16:37.622Z,25.77
2023-02-06T22:19:05.836Z,20.00
2023-02-06T22:21:33.926Z,22.30
2023-02-06T22:24:05.580Z,22.87
2023-02-06T22:26:36.658Z,23.67
2023-02-06T22:29:04.350Z,22.90
2023-02-06T22:31:33.235Z,21.80
2023-02-06T22:34:00.951Z,24.90
2023-02-06T22:36:30.380Z,22.00
2023-02-06T22:39:03.000Z,24.63
2023-02-06T22:41:30.626Z,22.77
2023-02-06T22:43:57.739Z,24.07
2023-02-06T22:46:24.602Z,24.23
2023-02-06T22:48:51.860Z,24.70
2023-02-06T22:51:19.916Z,25.03
2023-02-06T22:53:47.200Z,26.60
2023-02-06T22:56:27.136Z,27.60
2023-02-06T22:59:00.197Z,27.63
2023-02-06T23:01:32.149Z,27.90
2023-02-06T23:04:00.474Z,27.00
2023-02-06T23:06:28.700Z,24.30
2023-02-06T23:08:57.186Z,26.70
2023-02-06T23:11:25.054Z,29.53
2023-02-06T23:13:57.418Z,28.77
2023-02-06T23:16:25.164Z,22.83
2023-02-06T23:18:52.173Z,29.37
2023-02-06T23:21:21.722Z,27.30
2023-02-06T23:23:49.041Z,23.73
2023-02-06T23:26:18.364Z,29.33
2023-02-06T23:28:45.542Z,27.87
2023-02-06T23:31:13.312Z,26.13
2023-02-06T23:33:40.956Z,25.77
2023-02-06T23:36:18.788Z,31.43
2023-02-06T23:38:47.342Z,29.67
2023-02-06T23:41:20.186Z,26.27
2023-02-06T23:43:52.156Z,30.57
2023-02-06T23:46:20.669Z,25.63
2023-02-06T23:48:48.892Z,23.80
2023-02-06T23:51:17.227Z,23.67
2023-02-06T23:53:44.371Z,23.07
2023-02-06T23:56:16.332Z,23.00
2023-02-06T23:58:43.888Z,20.77
